Time,TemperatureF,DewpointF,PressureIn,WindDirection,WindDirectionDegrees,WindSpeedMPH,WindSpeedGustMPH,Humidity,HourlyPrecipIn,Conditions,Clouds,dailyrainin,SolarRadiationWatts/m^2,SoftwareType,DateUTC
2013-03-19 00:22:00,27.0,7.0,-100.00,West,271,17.0,31.0,42,0.00,,,-99.99,0.000000,,2013-03-19 06:22:00,
2013-03-19 00:32:00,27.0,7.0,-100.00,West,271,17.0,31.0,42,0.00,,,-99.99,0.000000,,2013-03-19 06:32:00,
2013-03-19 00:42:00,27.0,7.0,-100.00,West,271,17.0,31.0,42,0.00,,,-99.99,0.000000,,2013-03-19 06:42:00,
2013-03-19 00:52:00,27.0,7.0,-100.00,West,271,17.0,31.0,42,0.00,,,-99.99,0.000000,,2013-03-19 06:52:00,
2013-03-19 01:21:00,25.0,7.0,-100.00,West,264,11.0,27.0,45,0.00,,,0.00,0.000000,,2013-03-19 07:21:00,
2013-03-19 01:32:00,25.0,7.0,-100.00,West,264,11.0,27.0,45,0.00,,,0.00,0.000000,,2013-03-19 07:32:00,
2013-03-19 01:42:00,25.0,7.0,-100.00,West,264,11.0,27.0,45,0.00,,,0.00,0.000000,,2013-03-19 07:42:00,
2013-03-19 01:52:00,25.0,7.0,-100.00,West,264,11.0,27.0,45,0.00,,,0.00,0.000000,,2013-03-19 07:52:00,
2013-03-19 02:22:00,25.0,6.0,-100.00,West,259,10.0,23.0,44,0.00,,,0.00,0.000000,,2013-03-19 08:22:00,
2013-03-19 02:32:00,25.0,6.0,-100.00,West,259,10.0,23.0,44,0.00,,,0.00,0.000000,,2013-03-19 08:32:00,
2013-03-19 02:42:00,25.0,6.0,-100.00,West,259,10.0,23.0,44,0.00,,,0.00,0.000000,,2013-03-19 08:42:00,
2013-03-19 02:52:00,25.0,6.0,-100.00,West,259,10.0,23.0,44,0.00,,,0.00,0.000000,,2013-03-19 08:52:00,
2013-03-19 03:22:00,25.0,7.0,-100.00,West,266,12.0,19.0,45,0.00,,,0.00,0.000000,,2013-03-19 09:22:00,
2013-03-19 03:32:00,25.0,7.0,-100.00,West,266,12.0,19.0,45,0.00,,,0.00,0.000000,,2013-03-19 09:32:00,
2013-03-19 03:43:00,25.0,7.0,-100.00,West,266,12.0,19.0,45,0.00,,,0.00,0.000000,,2013-03-19 09:43:00,
2013-03-19 03:52:00,25.0,7.0,-100.00,West,266,12.0,19.0,45,0.00,,,0.00,0.000000,,2013-03-19 09:52:00,
2013-03-19 04:23:00,24.0,7.0,-100.00,West,266,13.0,21.0,47,0.00,,,0.00,0.000000,,2013-03-19 10:23:00,
2013-03-19 04:32:00,24.0,7.0,-100.00,West,266,13.0,21.0,47,0.00,,,0.00,0.000000,,2013-03-19 10:32:00,
2013-03-19 04:42:00,24.0,7.0,-100.00,West,266,13.0,21.0,47,0.00,,,0.00,0.000000,,2013-03-19 10:42:00,
2013-03-19 04:52:00,24.0,7.0,-100.00,West,266,13.0,21.0,47,0.00,,,0.00,0.000000,,2013-03-19 10:52:00,
2013-03-19 05:22:00,24.0,8.0,-100.00,West,270,15.0,25.0,49,0.00,,,0.00,0.000000,,2013-03-19 11:22:00,
2013-03-19 05:32:00,24.0,8.0,-100.00,West,270,15.0,25.0,49,0.00,,,0.00,0.000000,,2013-03-19 11:32:00,
2013-03-19 05:43:00,24.0,8.0,-100.00,West,270,15.0,25.0,49,0.00,,,0.00,0.000000,,2013-03-19 11:43:00,
2013-03-19 05:52:00,24.0,8.0,-100.00,West,270,15.0,25.0,49,0.00,,,0.00,0.000000,,2013-03-19 11:52:00,
2013-03-19 06:22:00,23.0,8.0,-100.00,West,271,14.0,22.0,51,0.00,,,0.00,0.000000,,2013-03-19 12:22:00,
2013-03-19 06:33:00,23.0,8.0,-100.00,West,271,14.0,22.0,51,0.00,,,0.00,0.000000,,2013-03-19 12:33:00,
2013-03-19 06:42:00,23.0,8.0,-100.00,West,271,14.0,22.0,51,0.00,,,0.00,0.000000,,2013-03-19 12:42:00,
2013-03-19 06:52:00,23.0,8.0,-100.00,West,271,14.0,22.0,51,0.00,,,0.00,0.000000,,2013-03-19 12:52:00,
2013-03-19 07:22:00,23.0,8.0,-100.00,WNW,283,9.0,20.0,52,0.00,,,0.00,0.000000,,2013-03-19 13:22:00,
2013-03-19 07:32:00,23.0,8.0,-100.00,WNW,283,9.0,20.0,52,0.00,,,0.00,0.000000,,2013-03-19 13:32:00,
2013-03-19 07:42:00,23.0,8.0,-100.00,WNW,283,9.0,20.0,52,0.00,,,0.00,0.000000,,2013-03-19 13:42:00,
2013-03-19 07:52:00,23.0,8.0,-100.00,WNW,283,9.0,20.0,52,0.00,,,0.00,0.000000,,2013-03-19 13:52:00,
2013-03-19 08:22:00,23.0,4.0,-100.00,WNW,290,8.0,16.0,43,0.00,,,0.00,20.000000,,2013-03-19 14:22:00,
2013-03-19 08:32:00,23.0,4.0,-100.00,WNW,290,8.0,16.0,43,0.00,,,0.00,20.000000,,2013-03-19 14:32:00,
2013-03-19 08:42:00,23.0,4.0,-100.00,WNW,290,8.0,16.0,43,0.00,,,0.00,20.000000,,2013-03-19 14:42:00,
2013-03-19 08:52:00,23.0,4.0,-100.00,WNW,290,8.0,16.0,43,0.00,,,0.00,20.000000,,2013-03-19 14:52:00,
2013-03-19 09:22:00,25.0,2.0,-100.00,West,266,10.0,14.0,36,0.00,,,0.00,139.000000,,2013-03-19 15:22:00,
2013-03-19 09:34:00,25.0,2.0,-100.00,West,266,10.0,14.0,36,0.00,,,0.00,139.000000,,2013-03-19 15:34:00,
2013-03-19 09:43:00,25.0,2.0,-100.00,West,266,10.0,14.0,36,0.00,,,0.00,139.000000,,2013-03-19 15:43:00,
2013-03-19 09:53:00,25.0,2.0,-100.00,West,266,10.0,14.0,36,0.00,,,0.00,139.000000,,2013-03-19 15:53:00,
2013-03-19 10:24:00,28.0,1.0,-100.00,West,267,11.0,18.0,31,0.00,,,0.00,334.000000,,2013-03-19 16:24:00,
2013-03-19 10:34:00,28.0,1.0,-100.00,West,267,11.0,18.0,31,0.00,,,0.00,334.000000,,2013-03-19 16:34:00,
2013-03-19 10:44:00,28.0,1.0,-100.00,West,267,11.0,18.0,31,0.00,,,0.00,334.000000,,2013-03-19 16:44:00,
2013-03-19 10:53:00,28.0,1.0,-100.00,West,267,11.0,18.0,31,0.00,,,0.00,334.000000,,2013-03-19 16:53:00,
2013-03-19 11:23:00,31.0,-6.0,-100.00,West,262,11.0,20.0,19,0.00,,,0.00,569.000000,,2013-03-19 17:23:00,
2013-03-19 11:34:00,31.0,-6.0,-100.00,West,262,11.0,20.0,19,0.00,,,0.00,569.000000,,2013-03-19 17:34:00,
2013-03-19 11:44:00,31.0,-6.0,-100.00,West,262,11.0,20.0,19,0.00,,,0.00,569.000000,,2013-03-19 17:44:00,
2013-03-19 11:52:00,31.0,-6.0,-100.00,West,262,11.0,20.0,19,0.00,,,0.00,569.000000,,2013-03-19 17:52:00,
2013-03-19 12:23:00,32.0,-12.0,-100.00,West,274,14.0,22.0,14,0.00,,,0.00,751.000000,,2013-03-19 18:23:00,
2013-03-19 12:33:00,32.0,-12.0,-100.00,West,274,14.0,22.0,14,0.00,,,0.00,751.000000,,2013-03-19 18:33:00,
2013-03-19 12:43:00,32.0,-12.0,-100.00,West,274,14.0,22.0,14,0.00,,,0.00,751.000000,,2013-03-19 18:43:00,
2013-03-19 12:53:00,32.0,-12.0,-100.00,West,274,14.0,22.0,14,0.00,,,0.00,751.000000,,2013-03-19 18:53:00,
2013-03-19 13:22:00,33.0,-14.0,-100.00,WSW,258,16.0,28.0,12,0.00,,,0.00,858.000000,,2013-03-19 19:22:00,
2013-03-19 13:33:00,33.0,-14.0,-100.00,WSW,258,16.0,28.0,12,0.00,,,0.00,858.000000,,2013-03-19 19:33:00,
2013-03-19 13:42:00,33.0,-14.0,-100.00,WSW,258,16.0,28.0,12,0.00,,,0.00,858.000000,,2013-03-19 19:42:00,
2013-03-19 13:52:00,33.0,-14.0,-100.00,WSW,258,16.0,28.0,12,0.00,,,0.00,858.000000,,2013-03-19 19:52:00,
2013-03-19 14:22:00,36.0,-12.0,-100.00,West,261,12.0,26.0,12,0.00,,,0.00,879.000000,,2013-03-19 20:22:00,
2013-03-19 14:32:00,36.0,-12.0,-100.00,West,261,12.0,26.0,12,0.00,,,0.00,879.000000,,2013-03-19 20:32:00,
2013-03-19 14:43:00,36.0,-12.0,-100.00,West,261,12.0,26.0,12,0.00,,,0.00,879.000000,,2013-03-19 20:43:00,
2013-03-19 14:52:00,36.0,-12.0,-100.00,West,261,12.0,26.0,12,0.00,,,0.00,879.000000,,2013-03-19 20:52:00,
2013-03-19 15:23:00,36.0,-13.0,-100.00,WSW,255,15.0,26.0,11,0.00,,,0.00,861.000000,,2013-03-19 21:23:00,
2013-03-19 15:34:00,36.0,-13.0,-100.00,WSW,255,15.0,26.0,11,0.00,,,0.00,861.000000,,2013-03-19 21:34:00,
2013-03-19 15:43:00,36.0,-13.0,-100.00,WSW,255,15.0,26.0,11,0.00,,,0.00,861.000000,,2013-03-19 21:43:00,
2013-03-19 15:52:00,36.0,-13.0,-100.00,WSW,255,15.0,26.0,11,0.00,,,0.00,861.000000,,2013-03-19 21:52:00,
2013-03-19 16:23:00,37.0,-13.0,-100.00,WSW,252,12.0,25.0,11,0.00,,,0.00,765.000000,,2013-03-19 22:23:00,
2013-03-19 16:33:00,37.0,-13.0,-100.00,WSW,252,12.0,25.0,11,0.00,,,0.00,765.000000,,2013-03-19 22:33:00,
2013-03-19 16:43:00,37.0,-13.0,-100.00,WSW,252,12.0,25.0,11,0.00,,,0.00,765.000000,,2013-03-19 22:43:00,
2013-03-19 16:53:00,37.0,-13.0,-100.00,WSW,252,12.0,25.0,11,0.00,,,0.00,765.000000,,2013-03-19 22:53:00,
2013-03-19 17:22:00,36.0,-15.0,-100.00,WSW,254,14.0,23.0,10,0.00,,,0.00,610.000000,,2013-03-19 23:22:00,
2013-03-19 17:32:00,36.0,-15.0,-100.00,WSW,254,14.0,23.0,10,0.00,,,0.00,610.000000,,2013-03-19 23:32:00,
2013-03-19 17:42:00,36.0,-15.0,-100.00,WSW,254,14.0,23.0,10,0.00,,,0.00,610.000000,,2013-03-19 23:42:00,
2013-03-19 17:52:00,36.0,-15.0,-100.00,WSW,254,14.0,23.0,10,0.00,,,0.00,610.000000,,2013-03-19 23:52:00,
2013-03-19 18:22:00,35.0,-14.0,-100.00,West,269,10.0,22.0,11,0.00,,,0.00,406.000000,,2013-03-20 00:22:00,
2013-03-19 18:33:00,35.0,-14.0,-100.00,West,269,10.0,22.0,11,0.00,,,0.00,406.000000,,2013-03-20 00:33:00,
2013-03-19 18:42:00,35.0,-14.0,-100.00,West,269,10.0,22.0,11,0.00,,,0.00,406.000000,,2013-03-20 00:42:00,
2013-03-19 18:52:00,35.0,-14.0,-100.00,West,269,10.0,22.0,11,0.00,,,0.00,406.000000,,2013-03-20 00:52:00,
2013-03-19 19:22:00,31.0,-14.0,-100.00,West,277,8.0,19.0,13,0.00,,,0.00,137.000000,,2013-03-20 01:22:00,
2013-03-19 19:32:00,31.0,-14.0,-100.00,West,277,8.0,19.0,13,0.00,,,0.00,137.000000,,2013-03-20 01:32:00,
2013-03-19 19:42:00,31.0,-14.0,-100.00,West,277,8.0,19.0,13,0.00,,,0.00,137.000000,,2013-03-20 01:42:00,
2013-03-19 19:52:00,31.0,-14.0,-100.00,West,277,8.0,19.0,13,0.00,,,0.00,137.000000,,2013-03-20 01:52:00,
2013-03-19 20:22:00,27.0,-3.0,-100.00,West,270,5.0,10.0,26,0.00,,,0.00,16.000000,,2013-03-20 02:22:00,
2013-03-19 20:32:00,27.0,-3.0,-100.00,West,270,5.0,10.0,26,0.00,,,0.00,16.000000,,2013-03-20 02:32:00,
2013-03-19 20:42:00,27.0,-3.0,-100.00,West,270,5.0,10.0,26,0.00,,,0.00,16.000000,,2013-03-20 02:42:00,
2013-03-19 20:52:00,27.0,-3.0,-100.00,West,270,5.0,10.0,26,0.00,,,0.00,16.000000,,2013-03-20 02:52:00,
2013-03-19 21:22:00,25.0,-8.0,-100.00,North,10,4.0,11.0,23,0.00,,,0.00,0.000000,,2013-03-20 03:22:00,
2013-03-19 21:34:00,25.0,-8.0,-100.00,North,10,4.0,11.0,23,0.00,,,0.00,0.000000,,2013-03-20 03:34:00,
2013-03-19 21:42:00,25.0,-8.0,-100.00,North,10,4.0,11.0,23,0.00,,,0.00,0.000000,,2013-03-20 03:42:00,
2013-03-19 21:53:00,25.0,-8.0,-100.00,North,10,4.0,11.0,23,0.00,,,0.00,0.000000,,2013-03-20 03:53:00,
2013-03-19 22:23:00,23.0,-7.0,-100.00,ENE,76,3.0,5.0,26,0.00,,,0.00,0.000000,,2013-03-20 04:23:00,
2013-03-19 22:32:00,23.0,-7.0,-100.00,ENE,76,3.0,5.0,26,0.00,,,0.00,0.000000,,2013-03-20 04:32:00,
2013-03-19 22:43:00,23.0,-7.0,-100.00,ENE,76,3.0,5.0,26,0.00,,,0.00,0.000000,,2013-03-20 04:43:00,
2013-03-19 22:52:00,23.0,-7.0,-100.00,ENE,76,3.0,5.0,26,0.00,,,0.00,0.000000,,2013-03-20 04:52:00,
2013-03-19 23:23:00,19.0,-4.0,-100.00,East,81,10.0,12.0,35,0.00,,,0.00,0.000000,,2013-03-20 05:23:00,
2013-03-19 23:32:00,19.0,-4.0,-100.00,East,81,10.0,12.0,35,0.00,,,0.00,0.000000,,2013-03-20 05:32:00,
2013-03-19 23:42:00,19.0,-4.0,-100.00,East,81,10.0,12.0,35,0.00,,,0.00,0.000000,,2013-03-20 05:42:00,
2013-03-19 23:52:00,19.0,-4.0,-100.00,East,81,10.0,12.0,35,0.00,,,0.00,0.000000,,2013-03-20 05:52:00,